Time;durP1;ratioP1;P1;durP2;ratioP2;P2;SDS_P1;SDS_P2;PMS_P1;PMS_P2;Temp;Humidity;BMP_temperature;BMP_pressure;BME280_temperature;BME280_humidity;BME280_pressure;Samples;Min_cycle;Max_cycle;Signal;HPM_P1;HPM_P2
2022/10/20 00:02:04;;;;;;;4.55;1.70;;;;;;;;;;2537037;54;21561;-75
2022/10/20 00:04:31;;;;;;;3.12;1.80;;;;;;;;;;2300300;58;21090;-76
2022/10/20 00:06:58;;;;;;;3.67;1.90;;;;;;;;;;2301558;58;21038;-76
2022/10/20 00:09:25;;;;;;;4.25;1.60;;;;;;;;;;2301346;58;21573;-76
2022/10/20 00:11:52;;;;;;;2.33;1.77;;;;;;;;;;2300646;58;21628;-76
2022/10/20 00:14:19;;;;;;;4.55;2.00;;;;;;;;;;2301201;58;21066;-75
2022/10/20 00:16:46;;;;;;;6.15;1.85;;;;;;;;;;2538386;54;21126;-76
2022/10/20 00:19:13;;;;;;;4.85;2.05;;;;;;;;;;2301024;58;21070;-76
2022/10/20 00:21:40;;;;;;;3.75;2.00;;;;;;;;;;2300944;58;21086;-76
2022/10/20 00:24:07;;;;;;;2.87;1.80;;;;;;;;;;2300888;58;21106;-76
2022/10/20 00:26:34;;;;;;;11.48;2.25;;;;;;;;;;2538446;54;21063;-75
2022/10/20 00:29:02;;;;;;;3.25;1.80;;;;;;;;;;2301402;58;21083;-76
2022/10/20 00:31:29;;;;;;;7.10;1.92;;;;;;;;;;2300963;58;21038;-75
2022/10/20 00:33:56;;;;;;;2.33;2.10;;;;;;;;;;2301347;58;21107;-76
2022/10/20 00:36:23;;;;;;;6.87;2.03;;;;;;;;;;2300226;58;21070;-75
2022/10/20 00:38:51;;;;;;;2.17;1.67;;;;;;;;;;2301267;58;21077;-75
2022/10/20 00:41:19;;;;;;;4.97;1.87;;;;;;;;;;2301257;58;21053;-76
2022/10/20 00:43:47;;;;;;;3.85;2.47;;;;;;;;;;2301805;58;21058;-75
2022/10/20 00:46:16;;;;;;;2.47;1.83;;;;;;;;;;2301287;58;21109;-76
2022/10/20 00:48:45;;;;;;;4.60;1.77;;;;;;;;;;2301161;58;21130;-76
2022/10/20 00:51:14;;;;;;;2.37;1.87;;;;;;;;;;2300949;58;21062;-76
2022/10/20 00:56:17;;;;;;;2.97;2.10;;;;;;;;;;2311164;57;27844;-75
2022/10/20 00:58:44;;;;;;;1.98;1.62;;;;;;;;;;2347684;57;21049;-77
2022/10/20 01:01:13;;;;;;;3.75;1.70;;;;;;;;;;2594558;53;21049;-76
2022/10/20 01:03:44;;;;;;;1.73;1.60;;;;;;;;;;2347476;57;21595;-76
2022/10/20 01:06:11;;;;;;;3.35;1.48;;;;;;;;;;2346869;57;21109;-76
2022/10/20 01:08:38;;;;;;;2.03;1.70;;;;;;;;;;2347308;57;21093;-76
2022/10/20 01:11:10;;;;;;;5.30;1.75;;;;;;;;;;2594786;53;21607;-76
2022/10/20 01:13:40;;;;;;;2.20;1.62;;;;;;;;;;2347173;57;21049;-76
2022/10/20 01:16:12;;;;;;;3.15;1.58;;;;;;;;;;2346971;57;21936;-75
2022/10/20 01:18:43;;;;;;;1.73;1.40;;;;;;;;;;2347854;57;21102;-76
2022/10/20 01:21:18;;;;;;;1.60;1.40;;;;;;;;;;2346286;57;21050;-76
2022/10/20 01:24:02;;;;;;;1.87;1.60;;;;;;;;;;2346859;57;21050;-75
2022/10/20 01:26:38;;;;;;;1.87;1.45;;;;;;;;;;2347361;57;21085;-75
2022/10/20 01:29:07;;;;;;;3.12;1.55;;;;;;;;;;2347625;57;21042;-75
2022/10/20 01:31:39;;;;;;;2.03;1.50;;;;;;;;;;2346099;57;21104;-75
2022/10/20 01:34:10;;;;;;;6.97;2.55;;;;;;;;;;2594510;52;21022;-75
2022/10/20 01:36:38;;;;;;;4.87;1.75;;;;;;;;;;2347483;57;21157;-75
2022/10/20 01:39:07;;;;;;;2.62;1.50;;;;;;;;;;2347644;57;21085;-75
2022/10/20 01:41:36;;;;;;;2.20;1.65;;;;;;;;;;2346408;57;21105;-75
2022/10/20 01:44:04;;;;;;;2.20;1.65;;;;;;;;;;2347330;57;21109;-75
2022/10/20 01:46:32;;;;;;;3.05;1.85;;;;;;;;;;2346958;57;21584;-75
2022/10/20 01:49:00;;;;;;;1.73;1.60;;;;;;;;;;2346559;57;21336;-75
2022/10/20 01:51:27;;;;;;;3.05;1.40;;;;;;;;;;2345690;57;21047;-75
2022/10/20 01:53:54;;;;;;;4.28;1.85;;;;;;;;;;2347292;57;21038;-75
2022/10/20 01:56:27;;;;;;;1.60;1.30;;;;;;;;;;2346637;57;21354;-75
2022/10/20 01:59:03;;;;;;;2.78;1.83;;;;;;;;;;2347353;57;21169;-75
2022/10/20 02:01:37;;;;;;;1.92;1.33;;;;;;;;;;2346287;57;21617;-75
2022/10/20 02:04:05;;;;;;;1.73;1.48;;;;;;;;;;2346885;57;21556;-75
2022/10/20 02:06:37;;;;;;;3.95;1.83;;;;;;;;;;2346800;57;21038;-75
2022/10/20 02:09:06;;;;;;;2.40;1.60;;;;;;;;;;2346152;57;21536;-75
2022/10/20 02:11:37;;;;;;;4.93;1.92;;;;;;;;;;2344996;57;21034;-75
2022/10/20 02:14:05;;;;;;;1.70;1.52;;;;;;;;;;2346305;57;21295;-75
2022/10/20 02:16:34;;;;;;;2.37;1.80;;;;;;;;;;2346258;57;21150;-75
2022/10/20 02:19:01;;;;;;;1.77;1.60;;;;;;;;;;2346093;57;21057;-75
2022/10/20 02:21:28;;;;;;;3.67;2.00;;;;;;;;;;2345982;57;21572;-75
2022/10/20 02:23:59;;;;;;;3.20;1.73;;;;;;;;;;2346220;57;21537;-75
2022/10/20 02:26:26;;;;;;;3.05;1.98;;;;;;;;;;2346349;57;21052;-75
2022/10/20 02:28:55;;;;;;;3.80;1.70;;;;;;;;;;2345909;57;21116;-75
2022/10/20 02:31:23;;;;;;;2.37;1.90;;;;;;;;;;2346080;57;21519;-75
2022/10/20 02:33:50;;;;;;;2.37;2.12;;;;;;;;;;2346244;57;21595;-75
2022/10/20 02:36:19;;;;;;;4.25;2.00;;;;;;;;;;2345770;57;21073;-75
2022/10/20 02:38:47;;;;;;;2.30;2.10;;;;;;;;;;2593820;53;21669;-75
2022/10/20 02:41:14;;;;;;;2.25;1.70;;;;;;;;;;2345951;57;21532;-75
2022/10/20 02:43:41;;;;;;;5.05;2.12;;;;;;;;;;2345747;57;21082;-75
2022/10/20 02:46:08;;;;;;;4.28;2.00;;;;;;;;;;2346212;57;21038;-75
2022/10/20 02:48:37;;;;;;;2.03;1.60;;;;;;;;;;2346331;57;21125;-75
2022/10/20 02:51:04;;;;;;;2.28;1.70;;;;;;;;;;2345933;57;21188;-75
2022/10/20 02:53:31;;;;;;;2.15;1.55;;;;;;;;;;2345888;57;21038;-75
2022/10/20 02:55:58;;;;;;;2.30;1.67;;;;;;;;;;2346123;57;21062;-75
2022/10/20 02:58:25;;;;;;;4.40;1.90;;;;;;;;;;2345968;57;21608;-75
2022/10/20 03:00:52;;;;;;;2.15;1.95;;;;;;;;;;2346032;57;21121;-75
2022/10/20 03:03:19;;;;;;;2.83;1.55;;;;;;;;;;2345323;57;21102;-75
2022/10/20 03:05:46;;;;;;;3.53;1.98;;;;;;;;;;2345950;57;21046;-75
2022/10/20 03:08:14;;;;;;;3.70;1.90;;;;;;;;;;2592730;53;21089;-75
2022/10/20 03:10:41;;;;;;;2.12;1.65;;;;;;;;;;2346353;57;21576;-75
2022/10/20 03:13:08;;;;;;;2.00;1.80;;;;;;;;;;2345956;56;21034;-75
2022/10/20 03:15:36;;;;;;;3.85;2.28;;;;;;;;;;2346356;57;21130;-76
2022/10/20 03:18:03;;;;;;;3.15;2.10;;;;;;;;;;2345807;57;21105;-75
2022/10/20 03:20:30;;;;;;;2.95;2.08;;;;;;;;;;2346656;57;21082;-75
2022/10/20 03:22:57;;;;;;;5.57;2.05;;;;;;;;;;2345513;57;21073;-75
2022/10/20 03:25:24;;;;;;;2.80;2.00;;;;;;;;;;2345653;57;21623;-75
2022/10/20 03:27:51;;;;;;;4.18;2.22;;;;;;;;;;2346627;57;21049;-75
2022/10/20 03:30:18;;;;;;;2.62;1.90;;;;;;;;;;2346225;57;21049;-75
2022/10/20 03:32:45;;;;;;;5.87;2.03;;;;;;;;;;2346218;57;21304;-75
2022/10/20 03:35:12;;;;;;;2.62;2.00;;;;;;;;;;2345470;57;21053;-75
2022/10/20 03:37:39;;;;;;;3.17;2.67;;;;;;;;;;2345795;57;21663;-75
2022/10/20 03:40:07;;;;;;;4.57;2.30;;;;;;;;;;2346773;57;21053;-75
2022/10/20 03:42:34;;;;;;;2.85;2.20;;;;;;;;;;2345571;57;21151;-75
2022/10/20 03:45:01;;;;;;;4.82;2.40;;;;;;;;;;2592629;53;21612;-75
2022/10/20 03:47:29;;;;;;;4.57;2.15;;;;;;;;;;2591903;53;21042;-75
2022/10/20 03:49:56;;;;;;;5.15;2.00;;;;;;;;;;2346250;57;21038;-75
2022/10/20 03:52:23;;;;;;;2.95;2.10;;;;;;;;;;2592312;53;21568;-75
2022/10/20 03:54:50;;;;;;;4.82;2.22;;;;;;;;;;2345334;57;21105;-75
2022/10/20 03:57:17;;;;;;;2.58;2.00;;;;;;;;;;2345570;57;21050;-75
2022/10/20 03:59:44;;;;;;;4.93;2.17;;;;;;;;;;2346819;57;21596;-75
2022/10/20 04:02:22;;;;;;;2.83;2.12;;;;;;;;;;2345815;57;21133;-75
2022/10/20 04:04:49;;;;;;;5.40;2.50;;;;;;;;;;2346618;57;21129;-75
2022/10/20 04:07:16;;;;;;;6.85;3.25;;;;;;;;;;2346313;57;21143;-75
2022/10/20 04:09:43;;;;;;;3.08;2.28;;;;;;;;;;2345782;57;21536;-75
2022/10/20 04:12:10;;;;;;;8.60;2.80;;;;;;;;;;2346325;57;21046;-75
2022/10/20 04:14:37;;;;;;;3.65;2.50;;;;;;;;;;2345566;57;21033;-75
2022/10/20 04:17:05;;;;;;;3.37;2.55;;;;;;;;;;2346166;57;21117;-75
2022/10/20 04:19:32;;;;;;;3.55;2.17;;;;;;;;;;2345746;57;21108;-75
2022/10/20 04:21:59;;;;;;;2.62;2.25;;;;;;;;;;2346100;57;21042;-75
2022/10/20 04:24:26;;;;;;;5.35;2.53;;;;;;;;;;2345584;57;21038;-75
2022/10/20 04:26:53;;;;;;;4.28;2.53;;;;;;;;;;2593407;53;21117;-74
2022/10/20 04:29:20;;;;;;;4.28;2.83;;;;;;;;;;2345391;57;21105;-75
2022/10/20 04:31:47;;;;;;;3.47;2.62;;;;;;;;;;2345892;57;21064;-79
2022/10/20 04:34:14;;;;;;;3.15;2.30;;;;;;;;;;2593890;52;21056;-75
2022/10/20 04:36:41;;;;;;;5.35;3.17;;;;;;;;;;2346250;57;21042;-75
2022/10/20 04:39:08;;;;;;;4.53;2.62;;;;;;;;;;2346040;57;21560;-74
2022/10/20 04:41:35;;;;;;;5.80;3.10;;;;;;;;;;2342493;57;21033;-75
2022/10/20 04:44:02;;;;;;;4.05;2.70;;;;;;;;;;2591899;53;21026;-74
2022/10/20 04:46:29;;;;;;;6.62;3.75;;;;;;;;;;2396020;52;21005;-77
2022/10/20 04:48:56;;;;;;;4.72;3.15;;;;;;;;;;2358547;57;21048;-77
2022/10/20 04:51:23;;;;;;;4.07;3.00;;;;;;;;;;2357352;57;21144;-77
2022/10/20 04:53:50;;;;;;;3.10;2.72;;;;;;;;;;2357614;57;21049;-76
2022/10/20 04:56:19;;;;;;;8.80;3.47;;;;;;;;;;2362554;57;21037;-77
2022/10/20 05:01:24;;;;;;;3.58;2.72;;;;;;;;;;2353275;57;23113;-76
2022/10/20 05:03:51;;;;;;;4.20;3.17;;;;;;;;;;2347079;57;21089;-76
2022/10/20 05:06:19;;;;;;;8.30;3.37;;;;;;;;;;2372369;56;21047;-75
2022/10/20 05:08:46;;;;;;;5.62;3.28;;;;;;;;;;2375007;56;21034;-76
2022/10/20 05:11:13;;;;;;;4.00;2.90;;;;;;;;;;2374134;56;21592;-75
2022/10/20 05:13:40;;;;;;;4.95;3.00;;;;;;;;;;2374004;56;21067;-75
2022/10/20 05:16:09;;;;;;;3.30;2.67;;;;;;;;;;2373763;56;21043;-76
2022/10/20 05:18:36;;;;;;;4.43;2.85;;;;;;;;;;2373195;56;21052;-75
2022/10/20 05:21:05;;;;;;;5.03;3.03;;;;;;;;;;2374182;56;21058;-76
2022/10/20 05:23:32;;;;;;;5.07;3.20;;;;;;;;;;2374294;56;21038;-76
2022/10/20 05:26:02;;;;;;;4.82;3.53;;;;;;;;;;2373896;56;21047;-76
2022/10/20 05:28:29;;;;;;;6.53;3.47;;;;;;;;;;2375063;56;21027;-77
2022/10/20 05:30:56;;;;;;;7.25;3.65;;;;;;;;;;2374204;56;21062;-76
2022/10/20 05:33:23;;;;;;;6.12;3.22;;;;;;;;;;2372815;56;21120;-77
2022/10/20 05:35:50;;;;;;;9.23;3.85;;;;;;;;;;2373757;56;21031;-76
2022/10/20 05:38:17;;;;;;;5.75;3.30;;;;;;;;;;2374966;56;21038;-76
2022/10/20 05:40:43;;;;;;;5.78;3.17;;;;;;;;;;2627665;52;21545;-77
2022/10/20 05:43:10;;;;;;;5.87;3.25;;;;;;;;;;2375102;56;21035;-77
2022/10/20 05:45:38;;;;;;;4.87;3.47;;;;;;;;;;2374473;56;21047;-78
2022/10/20 05:48:05;;;;;;;7.47;3.80;;;;;;;;;;2374371;56;21038;-77
2022/10/20 05:50:32;;;;;;;6.72;3.78;;;;;;;;;;2374200;56;21131;-77
2022/10/20 05:52:59;;;;;;;6.18;3.80;;;;;;;;;;2374390;56;21102;-77
2022/10/20 05:55:26;;;;;;;5.45;3.15;;;;;;;;;;2374443;56;21922;-77
2022/10/20 05:57:54;;;;;;;5.72;3.72;;;;;;;;;;2375504;56;21047;-77
2022/10/20 06:00:28;;;;;;;7.53;4.15;;;;;;;;;;2374452;56;21047;-77
2022/10/20 06:02:56;;;;;;;6.50;4.05;;;;;;;;;;2374715;56;21036;-76
2022/10/20 06:05:23;;;;;;;6.72;3.72;;;;;;;;;;2374330;56;21489;-77
2022/10/20 06:07:50;;;;;;;8.98;4.18;;;;;;;;;;2627288;52;21043;-77
2022/10/20 06:10:17;;;;;;;7.57;3.70;;;;;;;;;;2375010;56;21046;-77
2022/10/20 06:12:44;;;;;;;8.57;3.80;;;;;;;;;;2373307;56;21043;-77
2022/10/20 06:15:11;;;;;;;7.57;3.60;;;;;;;;;;2373519;56;21098;-77
2022/10/20 06:17:38;;;;;;;9.25;3.80;;;;;;;;;;2373175;56;21047;-77
2022/10/20 06:20:06;;;;;;;6.28;4.15;;;;;;;;;;2373703;56;21043;-77
2022/10/20 06:22:33;;;;;;;6.78;4.12;;;;;;;;;;2373745;56;21042;-76
2022/10/20 06:25:00;;;;;;;7.10;3.85;;;;;;;;;;2372907;56;21035;-75
2022/10/20 06:27:27;;;;;;;5.85;3.67;;;;;;;;;;2374020;56;21031;-77
2022/10/20 06:29:54;;;;;;;7.20;3.62;;;;;;;;;;2373735;56;21541;-77
2022/10/20 06:32:21;;;;;;;6.68;4.10;;;;;;;;;;2373742;56;21043;-77
2022/10/20 06:34:48;;;;;;;6.93;3.37;;;;;;;;;;2373668;56;21087;-76
2022/10/20 06:37:15;;;;;;;6.40;3.95;;;;;;;;;;2373924;56;21671;-77
2022/10/20 06:39:41;;;;;;;10.63;3.65;;;;;;;;;;2373449;56;21054;-77
2022/10/20 06:42:08;;;;;;;5.22;3.35;;;;;;;;;;2374026;56;21115;-76
2022/10/20 06:44:35;;;;;;;5.07;3.20;;;;;;;;;;2373550;56;21192;-77
2022/10/20 06:47:06;;;;;;;7.22;3.60;;;;;;;;;;2374150;56;21146;-76
2022/10/20 06:49:33;;;;;;;6.68;3.10;;;;;;;;;;2373100;56;22195;-77
2022/10/20 06:52:00;;;;;;;5.28;3.58;;;;;;;;;;2373401;56;21114;-78
2022/10/20 06:54:27;;;;;;;7.43;4.00;;;;;;;;;;2627138;52;21027;-77
2022/10/20 06:56:54;;;;;;;5.43;3.03;;;;;;;;;;2373419;56;21047;-77
2022/10/20 06:59:21;;;;;;;6.22;3.22;;;;;;;;;;2374059;56;21078;-77
2022/10/20 07:01:48;;;;;;;5.55;3.28;;;;;;;;;;2372714;56;21588;-77
2022/10/20 07:04:15;;;;;;;6.05;3.12;;;;;;;;;;2627482;52;21106;-77
2022/10/20 07:06:43;;;;;;;7.50;3.33;;;;;;;;;;2371874;56;21047;-77
2022/10/20 07:09:13;;;;;;;8.35;3.28;;;;;;;;;;2374071;56;21102;-76
2022/10/20 07:11:40;;;;;;;4.28;3.00;;;;;;;;;;2373521;56;21521;-77
2022/10/20 07:14:07;;;;;;;5.05;3.08;;;;;;;;;;2373794;56;21059;-77
2022/10/20 07:16:34;;;;;;;7.45;3.42;;;;;;;;;;2372130;56;21058;-77
2022/10/20 07:19:02;;;;;;;3.67;2.50;;;;;;;;;;2371166;56;21043;-77
2022/10/20 07:21:30;;;;;;;4.10;2.87;;;;;;;;;;2368705;56;21677;-77
2022/10/20 07:23:57;;;;;;;4.97;3.33;;;;;;;;;;2371690;56;21106;-77
2022/10/20 07:26:25;;;;;;;5.43;2.75;;;;;;;;;;2372368;56;21109;-77
2022/10/20 07:28:53;;;;;;;5.12;2.80;;;;;;;;;;2371753;56;21549;-78
2022/10/20 07:31:21;;;;;;;10.32;3.53;;;;;;;;;;2372510;56;21027;-77
2022/10/20 07:33:49;;;;;;;5.50;2.65;;;;;;;;;;2372609;56;21039;-77
2022/10/20 07:36:17;;;;;;;3.33;2.50;;;;;;;;;;2372011;56;21604;-77
2022/10/20 07:38:44;;;;;;;5.43;3.15;;;;;;;;;;2372145;56;21066;-76
2022/10/20 07:41:12;;;;;;;8.57;2.67;;;;;;;;;;2370884;56;21063;-77
2022/10/20 07:43:39;;;;;;;7.82;3.03;;;;;;;;;;2371160;56;21573;-76
2022/10/20 07:46:07;;;;;;;6.82;2.80;;;;;;;;;;2372148;56;21643;-76
2022/10/20 07:48:34;;;;;;;5.43;2.90;;;;;;;;;;2374090;56;21529;-77
2022/10/20 07:51:20;;;;;;;9.15;2.78;;;;;;;;;;2626688;52;21569;-78
2022/10/20 07:53:47;;;;;;;5.28;2.70;;;;;;;;;;2601270;52;21051;-77
2022/10/20 07:56:15;;;;;;;4.95;2.62;;;;;;;;;;2626390;52;21537;-77
2022/10/20 07:58:42;;;;;;;9.38;2.92;;;;;;;;;;2626173;52;21110;-77
2022/10/20 08:01:10;;;;;;;3.67;2.58;;;;;;;;;;2372398;56;21565;-78
2022/10/20 08:03:37;;;;;;;5.15;2.67;;;;;;;;;;2372539;56;21042;-77
2022/10/20 08:06:04;;;;;;;7.47;3.42;;;;;;;;;;2372462;56;21034;-77
2022/10/20 08:08:31;;;;;;;4.62;2.55;;;;;;;;;;2625569;52;21031;-76
2022/10/20 08:10:58;;;;;;;6.53;2.70;;;;;;;;;;2371452;56;21130;-77
2022/10/20 08:13:25;;;;;;;5.03;3.03;;;;;;;;;;2625510;52;21032;-78
2022/10/20 08:15:52;;;;;;;5.07;2.50;;;;;;;;;;2372150;56;21046;-78
2022/10/20 08:18:19;;;;;;;3.90;2.58;;;;;;;;;;2369598;56;21541;-77
2022/10/20 08:20:46;;;;;;;4.95;2.65;;;;;;;;;;2368662;56;21118;-77
2022/10/20 08:23:14;;;;;;;4.05;2.55;;;;;;;;;;2368576;56;21713;-77
2022/10/20 08:25:41;;;;;;;4.85;2.42;;;;;;;;;;2372018;56;21070;-77
2022/10/20 08:28:08;;;;;;;5.00;2.60;;;;;;;;;;2373285;56;21029;-78
2022/10/20 08:30:35;;;;;;;6.93;2.50;;;;;;;;;;2373627;56;21798;-78
2022/10/20 08:33:02;;;;;;;3.55;2.33;;;;;;;;;;2373292;56;21075;-77
2022/10/20 08:35:29;;;;;;;6.53;2.80;;;;;;;;;;2625950;52;21797;-78
2022/10/20 08:37:56;;;;;;;5.70;2.60;;;;;;;;;;2372352;56;21031;-78
2022/10/20 08:40:24;;;;;;;4.43;2.97;;;;;;;;;;2371587;56;21045;-78
2022/10/20 08:42:52;;;;;;;3.10;2.33;;;;;;;;;;2370583;56;21118;-77
2022/10/20 08:45:20;;;;;;;6.18;2.50;;;;;;;;;;2370023;56;21059;-77
2022/10/20 08:47:47;;;;;;;4.90;2.25;;;;;;;;;;2371925;56;21063;-78
2022/10/20 08:50:16;;;;;;;4.12;2.62;;;;;;;;;;2374087;56;21071;-77
2022/10/20 08:52:43;;;;;;;4.55;2.50;;;;;;;;;;2373485;56;21114;-78
2022/10/20 08:55:15;;;;;;;3.90;2.50;;;;;;;;;;2373347;56;21055;-77
2022/10/20 08:57:42;;;;;;;5.57;2.58;;;;;;;;;;2374203;56;21521;-77
2022/10/20 09:00:14;;;;;;;3.97;2.30;;;;;;;;;;2372848;56;21095;-79
2022/10/20 09:02:41;;;;;;;2.40;2.03;;;;;;;;;;2626703;52;21106;-78
2022/10/20 09:05:10;;;;;;;4.20;2.12;;;;;;;;;;2374203;56;21043;-76
2022/10/20 09:07:38;;;;;;;4.45;2.25;;;;;;;;;;2374148;56;21123;-77
2022/10/20 09:10:13;;;;;;;7.32;2.90;;;;;;;;;;2373732;56;21577;-77
2022/10/20 09:12:41;;;;;;;4.43;1.92;;;;;;;;;;2373390;56;21091;-77
2022/10/20 09:15:10;;;;;;;3.83;2.30;;;;;;;;;;2373523;56;21039;-78
2022/10/20 09:17:40;;;;;;;11.30;2.17;;;;;;;;;;2373090;56;21601;-77
2022/10/20 09:20:12;;;;;;;6.70;1.92;;;;;;;;;;2373874;56;21039;-77
2022/10/20 09:22:39;;;;;;;4.03;2.47;;;;;;;;;;2373357;56;21051;-78
2022/10/20 09:25:12;;;;;;;5.12;2.05;;;;;;;;;;2374102;56;21047;-77
2022/10/20 09:27:41;;;;;;;8.35;2.25;;;;;;;;;;2374289;56;21047;-77
2022/10/20 09:30:16;;;;;;;6.40;2.35;;;;;;;;;;2374047;56;21043;-77
2022/10/20 09:32:43;;;;;;;6.20;2.10;;;;;;;;;;2372744;56;21671;-78
2022/10/20 09:38:05;;;;;;;5.10;2.28;;;;;;;;;;2356093;57;22129;-77
2022/10/20 09:40:59;;;;;;;2.50;1.80;;;;;;;;;;2343374;57;21647;-79
2022/10/20 09:43:27;;;;;;;3.92;2.45;;;;;;;;;;2345393;57;21164;-79
2022/10/20 09:45:55;;;;;;;4.12;2.28;;;;;;;;;;2367084;56;21057;-79
2022/10/20 09:48:24;;;;;;;3.35;2.10;;;;;;;;;;2374393;56;21154;-78
2022/10/20 09:50:54;;;;;;;5.30;2.55;;;;;;;;;;2374325;56;21135;-78
2022/10/20 09:53:23;;;;;;;3.53;2.25;;;;;;;;;;2373823;56;21054;-77
2022/10/20 09:55:50;;;;;;;6.25;2.28;;;;;;;;;;2374167;56;21107;-78
2022/10/20 09:58:21;;;;;;;4.22;2.17;;;;;;;;;;2374492;56;21051;-77
2022/10/20 10:00:55;;;;;;;4.70;2.40;;;;;;;;;;2373981;56;21598;-78
2022/10/20 10:03:22;;;;;;;2.75;2.00;;;;;;;;;;2374202;56;21598;-78
2022/10/20 10:08:28;;;;;;;5.07;2.20;;;;;;;;;;2604250;53;22054;-79
2022/10/20 10:10:59;;;;;;;2.30;2.00;;;;;;;;;;2344671;57;21148;-79
2022/10/20 10:13:28;;;;;;;7.05;2.30;;;;;;;;;;2593903;53;21033;-77
2022/10/20 10:16:00;;;;;;;7.12;2.20;;;;;;;;;;2366138;56;21117;-77
2022/10/20 10:18:27;;;;;;;4.32;2.47;;;;;;;;;;2373769;56;21091;-77
2022/10/20 10:20:58;;;;;;;3.00;2.30;;;;;;;;;;2372421;56;21051;-77
2022/10/20 10:23:27;;;;;;;8.20;3.08;;;;;;;;;;2373058;56;21038;-77
2022/10/20 10:25:54;;;;;;;3.20;2.28;;;;;;;;;;2373301;56;21126;-77
2022/10/20 10:28:28;;;;;;;4.25;2.33;;;;;;;;;;2373316;56;21636;-78
2022/10/20 10:31:06;;;;;;;3.58;2.37;;;;;;;;;;2373717;56;21118;-78
2022/10/20 10:33:33;;;;;;;3.62;2.15;;;;;;;;;;2372453;56;21202;-77
2022/10/20 10:36:02;;;;;;;3.03;2.20;;;;;;;;;;2373344;56;21042;-77
2022/10/20 10:38:29;;;;;;;4.57;2.90;;;;;;;;;;2372511;56;21098;-77
2022/10/20 10:41:02;;;;;;;4.22;2.47;;;;;;;;;;2369923;56;21042;-78
2022/10/20 10:43:32;;;;;;;3.87;2.35;;;;;;;;;;2372131;56;21039;-77
2022/10/20 10:46:04;;;;;;;3.80;2.05;;;;;;;;;;2372508;56;21139;-76
2022/10/20 10:48:48;;;;;;;5.53;2.33;;;;;;;;;;2475325;54;21626;-76
2022/10/20 10:51:14;;;;;;;;;;;;;;;;;;2495145;55;21674;-74
2022/10/20 10:53:45;;;;;;;5.35;2.53;;;;;;;;;;2261920;59;20383;-75
2022/10/20 10:56:16;;;;;;;5.62;2.72;;;;;;;;;;2260702;59;21077;-75
2022/10/20 10:58:45;;;;;;;7.95;3.25;;;;;;;;;;2261548;59;21579;-76
2022/10/20 11:01:22;;;;;;;5.20;2.17;;;;;;;;;;2262279;59;21611;-75
2022/10/20 11:03:56;;;;;;;4.47;2.55;;;;;;;;;;2262395;59;21062;-75
2022/10/20 11:06:28;;;;;;;3.25;2.37;;;;;;;;;;2262072;59;21068;-75
2022/10/20 11:09:23;;;;;;;4.37;2.33;;;;;;;;;;2259837;59;21065;-74
2022/10/20 11:11:58;;;;;;;2.70;1.87;;;;;;;;;;2467556;55;21077;-75
2022/10/20 11:14:32;;;;;;;5.32;2.15;;;;;;;;;;2488643;55;21193;-75
2022/10/20 11:17:04;;;;;;;3.80;2.15;;;;;;;;;;2261067;59;21225;-74
2022/10/20 11:19:43;;;;;;;6.37;2.40;;;;;;;;;;2488394;55;21624;-73
2022/10/20 11:22:16;;;;;;;3.37;1.98;;;;;;;;;;2487706;55;21132;-74
2022/10/20 11:24:46;;;;;;;3.87;2.20;;;;;;;;;;2259532;59;21092;-75
2022/10/20 11:27:14;;;;;;;4.28;2.47;;;;;;;;;;2258522;59;21591;-75
2022/10/20 11:29:42;;;;;;;2.78;2.40;;;;;;;;;;2259620;59;21082;-75
2022/10/20 11:32:11;;;;;;;4.20;2.70;;;;;;;;;;2259077;59;21544;-76
2022/10/20 11:34:44;;;;;;;4.03;2.05;;;;;;;;;;2259682;59;21599;-74
2022/10/20 11:37:15;;;;;;;6.12;2.87;;;;;;;;;;2260816;59;21117;-74
2022/10/20 11:39:44;;;;;;;3.80;2.30;;;;;;;;;;2260198;59;21094;-75
2022/10/20 11:42:18;;;;;;;5.35;2.15;;;;;;;;;;2259561;59;21073;-75
2022/10/20 11:44:47;;;;;;;4.28;2.70;;;;;;;;;;2259284;59;21157;-75
2022/10/20 11:47:16;;;;;;;4.03;2.40;;;;;;;;;;2488697;55;21576;-75
2022/10/20 11:49:43;;;;;;;3.53;2.20;;;;;;;;;;2259140;59;21160;-76
2022/10/20 11:52:24;;;;;;;4.55;2.70;;;;;;;;;;2259763;59;21062;-75
2022/10/20 11:54:57;;;;;;;5.68;2.87;;;;;;;;;;2259903;59;21568;-75
2022/10/20 11:57:30;;;;;;;8.88;2.67;;;;;;;;;;2258373;59;21117;-75
2022/10/20 12:00:03;;;;;;;8.93;3.10;;;;;;;;;;2260555;59;21057;-76
2022/10/20 12:05:41;;;;;;;5.00;2.87;;;;;;;;;;2341378;57;22119;-73
2022/10/20 12:08:21;;;;;;;3.97;2.75;;;;;;;;;;2288541;57;21081;-75
2022/10/20 12:10:53;;;;;;;4.90;2.60;;;;;;;;;;2345608;57;21607;-74
2022/10/20 12:13:39;;;;;;;4.10;2.67;;;;;;;;;;2345589;57;21231;-74
2022/10/20 12:16:06;;;;;;;5.28;3.20;;;;;;;;;;2345641;57;21025;-74
2022/10/20 12:18:35;;;;;;;4.72;2.97;;;;;;;;;;2344134;57;21065;-73
2022/10/20 12:21:02;;;;;;;4.45;3.30;;;;;;;;;;2344175;57;21141;-76
2022/10/20 12:23:50;;;;;;;8.15;3.60;;;;;;;;;;2344278;57;21053;-74
2022/10/20 12:26:37;;;;;;;4.68;3.10;;;;;;;;;;2345851;57;21022;-75
2022/10/20 12:29:45;;;;;;;7.40;3.10;;;;;;;;;;2345417;57;21109;-76
2022/10/20 12:32:34;;;;;;;6.87;3.35;;;;;;;;;;2345627;57;21097;-80
2022/10/20 12:35:01;;;;;;;5.30;3.28;;;;;;;;;;2594091;52;21172;-80
2022/10/20 12:37:30;;;;;;;5.37;3.25;;;;;;;;;;2594762;53;21104;-80
2022/10/20 12:39:59;;;;;;;4.20;2.97;;;;;;;;;;2346544;57;21050;-80
2022/10/20 12:42:29;;;;;;;5.90;3.60;;;;;;;;;;2594230;53;21029;-80
2022/10/20 12:44:59;;;;;;;5.28;2.97;;;;;;;;;;2346686;57;21138;-80
2022/10/20 12:47:27;;;;;;;5.30;3.03;;;;;;;;;;2594576;53;21551;-80
2022/10/20 12:49:56;;;;;;;5.00;3.15;;;;;;;;;;2346814;57;21635;-80
2022/10/20 12:52:26;;;;;;;7.40;3.60;;;;;;;;;;2345955;57;21619;-80
2022/10/20 12:54:55;;;;;;;5.32;3.70;;;;;;;;;;2346915;57;21057;-81
2022/10/20 12:57:34;;;;;;;4.78;3.40;;;;;;;;;;2345040;57;21532;-75
2022/10/20 13:00:01;;;;;;;5.10;3.15;;;;;;;;;;2346264;57;21082;-76
2022/10/20 13:02:32;;;;;;;5.55;3.10;;;;;;;;;;2344857;57;21093;-76
2022/10/20 13:05:00;;;;;;;10.30;3.95;;;;;;;;;;2344969;57;21030;-76
2022/10/20 13:07:45;;;;;;;3.90;2.87;;;;;;;;;;2345691;57;21216;-77
2022/10/20 13:10:28;;;;;;;4.35;3.10;;;;;;;;;;2344268;57;21153;-74
2022/10/20 13:12:55;;;;;;;;;;;;;;;;;;2348408;57;21192;-75
2022/10/20 13:15:22;;;;;;;6.72;3.33;;;;;;;;;;2344465;57;20078;-75
2022/10/20 13:17:53;;;;;;;4.25;3.05;;;;;;;;;;2589819;52;21041;-75
2022/10/20 13:20:27;;;;;;;7.37;3.45;;;;;;;;;;2344894;57;21520;-76
2022/10/20 13:22:54;;;;;;;5.03;2.92;;;;;;;;;;2344293;57;21113;-75
2022/10/20 13:25:34;;;;;;;4.62;3.15;;;;;;;;;;2344878;57;21042;-75
2022/10/20 13:28:16;;;;;;;3.33;2.60;;;;;;;;;;2343592;57;21085;-75
2022/10/20 13:30:51;;;;;;;2.92;2.60;;;;;;;;;;2343184;57;21048;-73
2022/10/20 13:33:22;;;;;;;4.57;3.28;;;;;;;;;;2591428;52;21517;-75
2022/10/20 13:35:53;;;;;;;4.70;3.03;;;;;;;;;;2344258;57;21049;-75
2022/10/20 13:38:22;;;;;;;4.82;3.42;;;;;;;;;;2344476;57;21368;-75
2022/10/20 13:40:55;;;;;;;6.15;3.05;;;;;;;;;;2343980;57;21042;-75
2022/10/20 13:43:27;;;;;;;7.82;3.70;;;;;;;;;;2343997;57;21066;-74
2022/10/20 13:46:25;;;;;;;5.20;2.78;;;;;;;;;;2589246;52;21061;-75
2022/10/20 13:49:01;;;;;;;6.25;3.35;;;;;;;;;;2590533;52;21121;-75
2022/10/20 13:51:29;;;;;;;4.35;2.92;;;;;;;;;;2343458;57;21058;-75
2022/10/20 13:53:59;;;;;;;3.30;2.90;;;;;;;;;;2590873;53;21038;-75
2022/10/20 13:56:30;;;;;;;8.65;3.45;;;;;;;;;;2344348;57;21172;-75
2022/10/20 13:59:00;;;;;;;3.97;2.60;;;;;;;;;;2590289;53;21537;-75
2022/10/20 14:01:28;;;;;;;4.37;2.75;;;;;;;;;;2344102;57;21580;-74
2022/10/20 14:03:55;;;;;;;6.45;2.80;;;;;;;;;;2591133;53;21256;-74
2022/10/20 14:06:33;;;;;;;4.87;3.37;;;;;;;;;;2591570;52;21046;-75
2022/10/20 14:09:11;;;;;;;4.72;2.92;;;;;;;;;;2344620;57;21544;-76
2022/10/20 14:11:39;;;;;;;5.97;2.90;;;;;;;;;;2345251;57;21054;-75
2022/10/20 14:14:06;;;;;;;5.62;3.65;;;;;;;;;;2344634;57;21682;-75
2022/10/20 14:16:34;;;;;;;4.35;2.97;;;;;;;;;;2344511;57;21105;-76
2022/10/20 14:19:03;;;;;;;4.47;3.42;;;;;;;;;;2344818;57;21121;-76
2022/10/20 14:21:38;;;;;;;5.15;2.90;;;;;;;;;;2345306;57;21105;-74
2022/10/20 14:24:06;;;;;;;4.70;3.15;;;;;;;;;;2344575;57;21591;-76
2022/10/20 14:26:33;;;;;;;5.32;3.58;;;;;;;;;;2344750;57;21041;-76
2022/10/20 14:29:02;;;;;;;5.93;3.10;;;;;;;;;;2344164;57;21924;-75
2022/10/20 14:31:29;;;;;;;5.12;3.67;;;;;;;;;;2343858;57;21626;-77
2022/10/20 14:33:56;;;;;;;5.68;3.30;;;;;;;;;;2591687;53;21786;-76
2022/10/20 14:36:25;;;;;;;4.43;3.17;;;;;;;;;;2345552;57;21308;-75
2022/10/20 14:38:53;;;;;;;4.82;2.97;;;;;;;;;;2591498;53;21100;-75
2022/10/20 14:41:25;;;;;;;5.25;3.90;;;;;;;;;;2344518;57;21113;-76
2022/10/20 14:43:53;;;;;;;4.62;3.05;;;;;;;;;;2344770;57;21663;-76
2022/10/20 14:46:25;;;;;;;6.57;3.80;;;;;;;;;;2342332;57;21538;-77
2022/10/20 14:48:52;;;;;;;8.43;4.68;;;;;;;;;;2344148;57;21592;-76
2022/10/20 14:51:30;;;;;;;6.57;3.62;;;;;;;;;;2590030;53;21037;-76
2022/10/20 14:54:16;;;;;;;7.32;3.58;;;;;;;;;;2343677;57;21552;-75
2022/10/20 14:56:44;;;;;;;10.85;3.17;;;;;;;;;;2344451;57;21813;-75
2022/10/20 14:59:14;;;;;;;5.80;3.15;;;;;;;;;;2344682;57;21564;-75
2022/10/20 15:01:47;;;;;;;4.70;2.87;;;;;;;;;;2344114;57;21117;-76
2022/10/20 15:04:15;;;;;;;3.67;2.92;;;;;;;;;;2345648;57;21109;-77
2022/10/20 15:06:43;;;;;;;4.68;3.17;;;;;;;;;;2345723;57;22485;-80
2022/10/20 15:09:25;;;;;;;4.80;3.10;;;;;;;;;;2590749;53;21551;-74
2022/10/20 15:11:52;;;;;;;3.75;2.72;;;;;;;;;;2343939;57;21556;-74